Private Wetterstation Wechselburg
Wetterdaten: Donnerstag, 12.05.2011
Datum Zeit Temp. +2m Bodentemp. Temp.+5cm Temp. Wind Windchill X Diff Temp. Feuchte +2m Feuchte +5cm Sonnenschein Luftdruck Regen Wind Richtung Richtung Sonnenschein UV Taupunkt Windchill Windben
12.05.2011 00:00 16,0 C 19,7 C 14,7 C 15,1 C 13,4 C 0,0 C 81 % 87 % 0 % 1018,5 hPa 0,0 l/m 0,0 km/h (0 Bft) S-SW 202 0 min 0,0 UV-I 12,7 C 13,4 C 0,0 km/h (0 Bft)
12.05.2011 00:09 16,0 C 19,7 C 14,6 C 15,0 C 13,0 C 0,0 C 81 % 87 % 0 % 1018,5 hPa 0,0 l/m 0,0 km/h (0 Bft) N 0 0 min 0,0 UV-I 12,7 C 13,0 C 0,0 km/h (0 Bft)
12.05.2011 00:15 16,0 C 19,6 C 14,5 C 15,0 C 12,9 C 0,0 C 81 % 87 % 0 % 1018,4 hPa 0,0 l/m 0,3 km/h (0 Bft) SW 225 0 min 0,0 UV-I 12,7 C 12,9 C 1,6 km/h (1 Bft)
12.05.2011 00:20 16,0 C 19,6 C 14,4 C 15,0 C 12,9 C 0,0 C 81 % 87 % 0 % 1018,4 hPa 0,0 l/m 0,3 km/h (0 Bft) S 180 0 min 0,0 UV-I 12,7 C 12,9 C 0,0 km/h (0 Bft)
12.05.2011 00:25 15,9 C 19,6 C 14,4 C 14,9 C 12,9 C 0,0 C 81 % 87 % 0 % 1018,4 hPa 0,0 l/m 0,2 km/h (0 Bft) SW 225 0 min 0,0 UV-I 12,6 C 12,9 C 0,0 km/h (0 Bft)
12.05.2011 00:30 15,9 C 19,6 C 14,3 C 14,9 C 12,8 C 0,0 C 81 % 87 % 0 % 1018,4 hPa 0,0 l/m 0,0 km/h (0 Bft) S 180 0 min 0,0 UV-I 12,6 C 12,8 C 0,0 km/h (0 Bft)
12.05.2011 00:35 15,7 C 19,6 C 14,1 C 14,7 C 12,8 C 0,0 C 81 % 87 % 0 % 1018,6 hPa 0,0 l/m 0,0 km/h (0 Bft) S 180 0 min 0,0 UV-I 12,4 C 12,8 C 0,0 km/h (0 Bft)
12.05.2011 00:40 15,6 C 19,6 C 14,1 C 14,6 C 12,7 C 0,0 C 81 % 88 % 0 % 1018,6 hPa 0,0 l/m 0,0 km/h (0 Bft) S 180 0 min 0,0 UV-I 12,3 C 12,7 C 0,0 km/h (0 Bft)
12.05.2011 00:45 15,5 C 19,6 C 14,1 C 14,5 C 12,6 C 0,0 C 82 % 88 % 0 % 1018,6 hPa 0,0 l/m 0,0 km/h (0 Bft) S 180 0 min 0,0 UV-I 12,4 C 12,6 C 0,0 km/h (0 Bft)
12.05.2011 00:50 15,6 C 19,6 C 14,0 C 14,6 C 12,5 C 0,0 C 82 % 88 % 0 % 1018,6 hPa 0,0 l/m 0,0 km/h (0 Bft) S 180 0 min 0,0 UV-I 12,5 C 12,5 C 0,0 km/h (0 Bft)
12.05.2011 00:55 15,5 C 19,6 C 13,9 C 14,5 C 12,4 C 0,0 C 82 % 87 % 0 % 1018,4 hPa 0,0 l/m 0,0 km/h (0 Bft) S 180 0 min 0,0 UV-I 12,4 C 12,4 C 0,0 km/h (0 Bft)
12.05.2011 01:00 15,3 C 19,6 C 13,7 C 14,3 C 12,4 C 0,0 C 81 % 87 % 0 % 1018,4 hPa 0,0 l/m 0,0 km/h (0 Bft) S 180 0 min 0,0 UV-I 12,1 C 12,4 C 0,0 km/h (0 Bft)
12.05.2011 01:10 15,2 C 19,6 C 13,6 C 14,2 C 12,2 C 0,0 C 81 % 88 % 0 % 1018,4 hPa 0,0 l/m 0,0 km/h (0 Bft) N 0 0 min 0,0 UV-I 12,0 C 12,2 C 0,0 km/h (0 Bft)
12.05.2011 01:15 15,1 C 19,6 C 13,6 C 14,1 C 12,1 C 0,0 C 82 % 88 % 0 % 1018,2 hPa 0,0 l/m 0,0 km/h (0 Bft) S 180 0 min 0,0 UV-I 12,0 C 12,1 C 0,0 km/h (0 Bft)
12.05.2011 01:20 15,1 C 19,6 C 13,6 C 14,1 C 12,0 C 0,0 C 82 % 88 % 0 % 1018,2 hPa 0,0 l/m 0,3 km/h (0 Bft) SW 225 0 min 0,0 UV-I 12,0 C 12,0 C 1,6 km/h (1 Bft)
12.05.2011 01:25 15,1 C 19,6 C 13,4 C 14,1 C 12,0 C 0,0 C 81 % 88 % 0 % 1018,2 hPa 0,0 l/m 0,3 km/h (0 Bft) SW 225 0 min 0,0 UV-I 11,9 C 12,0 C 2,7 km/h (1 Bft)
12.05.2011 01:30 14,9 C 19,6 C 13,3 C 13,9 C 11,9 C 0,0 C 81 % 88 % 0 % 1018,2 hPa 0,0 l/m 0,2 km/h (0 Bft) S 180 0 min 0,0 UV-I 11,7 C 11,9 C 0,0 km/h (0 Bft)
12.05.2011 01:35 14,8 C 19,6 C 13,2 C 13,8 C 11,8 C 0,0 C 82 % 88 % 0 % 1017,8 hPa 0,0 l/m 0,0 km/h (0 Bft) S 180 0 min 0,0 UV-I 11,8 C 11,8 C 0,0 km/h (0 Bft)
12.05.2011 01:40 14,9 C 19,6 C 13,3 C 13,9 C 11,8 C 0,0 C 82 % 88 % 0 % 1017,8 hPa 0,0 l/m 0,0 km/h (0 Bft) S 180 0 min 0,0 UV-I 11,9 C 11,8 C 0,0 km/h (0 Bft)
12.05.2011 01:45 14,6 C 19,6 C 13,2 C 13,7 C 11,8 C 0,0 C 82 % 88 % 0 % 1017,8 hPa 0,0 l/m 0,0 km/h (0 Bft) S 180 0 min 0,0 UV-I 11,6 C 11,8 C 0,0 km/h (0 Bft)
12.05.2011 01:50 14,5 C 19,6 C 13,1 C 13,6 C 11,8 C 0,0 C 82 % 88 % 0 % 1017,8 hPa 0,0 l/m 0,0 km/h (0 Bft) S 180 0 min 0,0 UV-I 11,5 C 11,8 C 0,0 km/h (0 Bft)
12.05.2011 01:55 14,4 C 19,6 C 13,1 C 13,5 C 11,8 C 0,0 C 83 % 88 % 0 % 1018,0 hPa 0,0 l/m 0,0 km/h (0 Bft) S 180 0 min 0,0 UV-I 11,5 C 11,8 C 0,0 km/h (0 Bft)
12.05.2011 02:00 14,4 C 19,6 C 12,9 C 13,5 C 11,8 C 0,0 C 83 % 89 % 0 % 1018,0 hPa 0,0 l/m 0,0 km/h (0 Bft) S 180 0 min 0,0 UV-I 11,5 C 11,8 C 0,0 km/h (0 Bft)
12.05.2011 02:10 14,4 C 19,6 C 13,0 C 13,5 C 11,7 C 0,0 C 83 % 89 % 0 % 1018,0 hPa 0,0 l/m 0,0 km/h (0 Bft) N 0 0 min 0,0 UV-I 11,5 C 11,7 C 0,0 km/h (0 Bft)
12.05.2011 02:15 14,4 C 19,6 C 12,9 C 13,4 C 11,5 C 0,0 C 82 % 88 % 0 % 1017,9 hPa 0,0 l/m 0,0 km/h (0 Bft) SW 225 0 min 0,0 UV-I 11,4 C 11,5 C 0,0 km/h (0 Bft)
12.05.2011 02:20 14,4 C 19,6 C 12,8 C 13,4 C 11,4 C 0,0 C 82 % 88 % 0 % 1017,9 hPa 0,0 l/m 0,0 km/h (0 Bft) SW 225 0 min 0,0 UV-I 11,4 C 11,4 C 0,0 km/h (0 Bft)
12.05.2011 02:25 14,3 C 19,6 C 12,7 C 13,3 C 11,4 C 0,0 C 83 % 88 % 0 % 1017,9 hPa 0,0 l/m 0,0 km/h (0 Bft) SW 225 0 min 0,0 UV-I 11,5 C 11,4 C 0,0 km/h (0 Bft)
12.05.2011 02:30 14,3 C 19,6 C 12,7 C 13,3 C 11,4 C 0,0 C 83 % 89 % 0 % 1017,9 hPa 0,0 l/m 0,0 km/h (0 Bft) SW 225 0 min 0,0 UV-I 11,5 C 11,4 C 0,0 km/h (0 Bft)
12.05.2011 02:35 14,3 C 19,6 C 12,8 C 13,3 C 11,2 C 0,0 C 83 % 88 % 0 % 1017,8 hPa 0,0 l/m 0,5 km/h (0 Bft) SW 225 0 min 0,0 UV-I 11,5 C 11,2 C 2,9 km/h (1 Bft)
12.05.2011 02:40 14,3 C 19,6 C 12,6 C 13,3 C 11,2 C 0,0 C 82 % 88 % 0 % 1017,8 hPa 0,0 l/m 0,8 km/h (0 Bft) SW 225 0 min 0,0 UV-I 11,3 C 11,2 C 0,0 km/h (0 Bft)
12.05.2011 02:45 14,1 C 19,6 C 12,4 C 13,1 C 11,0 C 0,0 C 81 % 88 % 0 % 1017,8 hPa 0,0 l/m 0,5 km/h (0 Bft) SW 225 0 min 0,0 UV-I 10,9 C 11,0 C 0,0 km/h (0 Bft)
12.05.2011 02:50 13,8 C 19,6 C 12,4 C 12,8 C 10,9 C 0,0 C 82 % 88 % 0 % 1017,8 hPa 0,0 l/m 0,0 km/h (0 Bft) SW 225 0 min 0,0 UV-I 10,8 C 10,9 C 0,0 km/h (0 Bft)
12.05.2011 02:55 13,9 C 19,6 C 12,4 C 12,9 C 10,8 C 0,0 C 82 % 88 % 0 % 1017,8 hPa 0,0 l/m 0,0 km/h (0 Bft) SW 225 0 min 0,0 UV-I 10,9 C 10,8 C 0,0 km/h (0 Bft)
12.05.2011 03:00 14,0 C 19,6 C 12,4 C 12,9 C 10,8 C 0,0 C 82 % 88 % 0 % 1017,8 hPa 0,0 l/m 0,0 km/h (0 Bft) SW 225 0 min 0,0 UV-I 11,0 C 10,8 C 0,0 km/h (0 Bft)
12.05.2011 03:10 13,7 C 19,6 C 12,1 C 12,7 C 10,7 C 0,0 C 82 % 88 % 0 % 1017,8 hPa 0,0 l/m 0,0 km/h (0 Bft) N 0 0 min 0,0 UV-I 10,7 C 10,7 C 0,0 km/h (0 Bft)
12.05.2011 03:15 13,5 C 19,6 C 11,9 C 12,6 C 10,8 C 0,0 C 82 % 88 % 0 % 1017,5 hPa 0,0 l/m 0,0 km/h (0 Bft) SW 225 0 min 0,0 UV-I 10,5 C 10,8 C 0,0 km/h (0 Bft)
12.05.2011 03:20 13,5 C 19,6 C 11,9 C 12,6 C 10,8 C 0,0 C 83 % 89 % 0 % 1017,5 hPa 0,0 l/m 0,0 km/h (0 Bft) SW 225 0 min 0,0 UV-I 10,7 C 10,8 C 0,0 km/h (0 Bft)
12.05.2011 03:25 13,6 C 19,6 C 12,0 C 12,6 C 10,7 C 0,0 C 82 % 89 % 0 % 1017,5 hPa 0,0 l/m 0,0 km/h (0 Bft) SW 225 0 min 0,0 UV-I 10,6 C 10,7 C 0,0 km/h (0 Bft)
12.05.2011 03:30 13,5 C 19,6 C 12,0 C 12,6 C 10,7 C 0,0 C 82 % 89 % 0 % 1017,5 hPa 0,0 l/m 0,0 km/h (0 Bft) SW 225 0 min 0,0 UV-I 10,5 C 10,7 C 0,0 km/h (0 Bft)
12.05.2011 03:35 13,3 C 19,6 C 11,9 C 12,5 C 10,8 C 0,0 C 83 % 89 % 0 % 1017,2 hPa 0,0 l/m 0,0 km/h (0 Bft) SW 225 0 min 0,0 UV-I 10,5 C 10,8 C 0,0 km/h (0 Bft)
12.05.2011 03:40 13,4 C 19,6 C 11,9 C 12,5 C 10,8 C 0,0 C 84 % 89 % 0 % 1017,2 hPa 0,0 l/m 0,2 km/h (0 Bft) SW 225 0 min 0,0 UV-I 10,8 C 10,8 C 0,0 km/h (0 Bft)
12.05.2011 03:45 13,4 C 19,6 C 12,0 C 12,5 C 10,6 C 0,0 C 82 % 89 % 0 % 1017,2 hPa 0,0 l/m 0,2 km/h (0 Bft) SW 225 0 min 0,0 UV-I 10,4 C 10,6 C 0,0 km/h (0 Bft)
12.05.2011 03:50 13,5 C 19,6 C 11,9 C 12,5 C 10,5 C 0,0 C 83 % 89 % 0 % 1017,2 hPa 0,0 l/m 0,0 km/h (0 Bft) SW 225 0 min 0,0 UV-I 10,7 C 10,5 C 0,0 km/h (0 Bft)
12.05.2011 03:55 13,5 C 19,6 C 11,9 C 12,5 C 10,4 C 0,0 C 82 % 89 % 0 % 1017,2 hPa 0,0 l/m 0,0 km/h (0 Bft) S-SW 202 0 min 0,0 UV-I 10,5 C 10,4 C 0,0 km/h (0 Bft)
12.05.2011 04:00 13,3 C 19,6 C 11,9 C 12,3 C 10,4 C 0,0 C 82 % 89 % 0 % 1017,2 hPa 0,0 l/m 0,0 km/h (0 Bft) S-SW 202 0 min 0,0 UV-I 10,3 C 10,4 C 0,0 km/h (0 Bft)
12.05.2011 04:10 13,3 C 19,6 C 11,9 C 12,3 C 10,3 C 0,0 C 83 % 89 % 0 % 1017,2 hPa 0,0 l/m 0,0 km/h (0 Bft) N 0 0 min 0,0 UV-I 10,5 C 10,3 C 0,0 km/h (0 Bft)
12.05.2011 04:15 13,2 C 19,6 C 11,9 C 12,2 C 10,3 C 0,0 C 83 % 89 % 0 % 1017,4 hPa 0,0 l/m 0,0 km/h (0 Bft) SW 225 0 min 0,0 UV-I 10,4 C 10,3 C 0,0 km/h (0 Bft)
12.05.2011 04:20 13,3 C 19,6 C 11,8 C 12,3 C 10,2 C 0,0 C 82 % 89 % 0 % 1017,4 hPa 0,0 l/m 0,0 km/h (0 Bft) SW 225 0 min 0,0 UV-I 10,3 C 10,2 C 0,0 km/h (0 Bft)
12.05.2011 04:25 13,1 C 19,6 C 11,7 C 12,1 C 10,1 C 0,0 C 83 % 89 % 0 % 1017,4 hPa 0,0 l/m 0,2 km/h (0 Bft) SW 225 0 min 0,0 UV-I 10,3 C 10,1 C 2,1 km/h (1 Bft)
12.05.2011 04:30 13,2 C 19,6 C 11,6 C 12,2 C 10,1 C 0,0 C 83 % 89 % 0 % 1017,4 hPa 0,0 l/m 0,3 km/h (0 Bft) S-SW 202 0 min 0,0 UV-I 10,4 C 10,1 C 0,0 km/h (0 Bft)
12.05.2011 04:35 12,9 C 19,6 C 11,5 C 12,0 C 10,1 C 0,0 C 82 % 88 % 0 % 1016,9 hPa 0,0 l/m 0,3 km/h (0 Bft) S 180 0 min 0,0 UV-I 9,9 C 10,1 C 0,0 km/h (0 Bft)
12.05.2011 04:40 12,7 C 19,6 C 11,3 C 11,9 C 10,2 C 0,0 C 83 % 89 % 0 % 1016,9 hPa 0,0 l/m 0,0 km/h (0 Bft) S 180 0 min 0,0 UV-I 9,9 C 10,2 C 0,0 km/h (0 Bft)
12.05.2011 04:45 12,8 C 18,9 C 11,5 C 11,9 C 10,1 C 0,0 C 83 % 89 % 0 % 1016,9 hPa 0,0 l/m 0,6 km/h (0 Bft) S-SW 202 0 min 0,0 UV-I 10,0 C 10,1 C 1,8 km/h (1 Bft)
12.05.2011 04:50 12,9 C 18,9 C 11,4 C 11,9 C 10,0 C 0,0 C 83 % 89 % 0 % 1016,9 hPa 0,0 l/m 0,8 km/h (0 Bft) W-SW 247 0 min 0,0 UV-I 10,1 C 10,0 C 0,0 km/h (0 Bft)
12.05.2011 04:55 12,9 C 18,9 C 11,4 C 11,9 C 9,9 C 0,0 C 82 % 89 % 0 % 1016,9 hPa 0,0 l/m 0,3 km/h (0 Bft) W-SW 247 0 min 0,0 UV-I 9,9 C 9,9 C 0,0 km/h (0 Bft)
12.05.2011 05:00 12,8 C 18,9 C 11,3 C 11,8 C 9,7 C 0,0 C 82 % 89 % 0 % 1016,9 hPa 0,0 l/m 0,0 km/h (0 Bft) SW 225 0 min 0,0 UV-I 9,8 C 9,7 C 0,0 km/h (0 Bft)
12.05.2011 05:10 12,3 C 18,9 C 11,1 C 11,4 C 9,7 C 0,0 C 83 % 89 % 0 % 1016,9 hPa 0,0 l/m 0,0 km/h (0 Bft) N 0 0 min 0,0 UV-I 9,5 C 9,7 C 0,0 km/h (0 Bft)
12.05.2011 05:15 12,4 C 18,9 C 11,1 C 11,5 C 9,6 C 0,0 C 83 % 89 % 0 % 1016,8 hPa 0,0 l/m 0,0 km/h (0 Bft) SW 225 0 min 0,0 UV-I 9,6 C 9,6 C 0,0 km/h (0 Bft)
12.05.2011 05:20 12,5 C 18,9 C 11,1 C 11,5 C 9,5 C 0,0 C 83 % 89 % 0 % 1016,8 hPa 0,0 l/m 0,0 km/h (0 Bft) SW 225 0 min 0,0 UV-I 9,7 C 9,5 C 0,0 km/h (0 Bft)
12.05.2011 05:25 12,5 C 18,9 C 11,1 C 11,5 C 9,5 C 0,0 C 83 % 89 % 0 % 1016,8 hPa 0,0 l/m 0,0 km/h (0 Bft) SW 225 0 min 0,0 UV-I 9,7 C 9,5 C 0,0 km/h (0 Bft)
12.05.2011 05:30 12,4 C 18,9 C 11,0 C 11,4 C 9,5 C 0,0 C 83 % 89 % 0 % 1016,8 hPa 0,0 l/m 0,0 km/h (0 Bft) S-SW 202 0 min 0,0 UV-I 9,6 C 9,5 C 0,0 km/h (0 Bft)
12.05.2011 05:35 12,3 C 18,9 C 11,1 C 11,4 C 9,6 C 0,0 C 84 % 89 % 0 % 1016,7 hPa 0,0 l/m 0,0 km/h (0 Bft) SW 225 0 min 0,0 UV-I 9,7 C 9,6 C 0,0 km/h (0 Bft)
12.05.2011 05:40 12,4 C 18,9 C 11,1 C 11,5 C 9,6 C 0,0 C 83 % 89 % 0 % 1016,7 hPa 0,0 l/m 0,0 km/h (0 Bft) W-SW 247 0 min 0,0 UV-I 9,6 C 9,6 C 0,0 km/h (0 Bft)
12.05.2011 05:45 12,4 C 18,9 C 11,1 C 11,4 C 9,5 C 0,0 C 83 % 89 % 0 % 1016,7 hPa 0,0 l/m 0,0 km/h (0 Bft) W-SW 247 0 min 0,0 UV-I 9,6 C 9,5 C 0,0 km/h (0 Bft)
12.05.2011 05:50 12,4 C 18,9 C 11,1 C 11,4 C 9,5 C 0,0 C 83 % 89 % 0 % 1016,7 hPa 0,0 l/m 0,0 km/h (0 Bft) SW 225 0 min 0,0 UV-I 9,6 C 9,5 C 0,0 km/h (0 Bft)
12.05.2011 05:55 12,5 C 18,9 C 11,1 C 11,5 C 9,5 C 0,0 C 83 % 89 % 0 % 1016,8 hPa 0,0 l/m 0,2 km/h (0 Bft) S 180 0 min 0,0 UV-I 9,7 C 9,5 C 0,0 km/h (0 Bft)
12.05.2011 06:00 12,5 C 18,9 C 11,0 C 11,5 C 9,6 C 0,0 C 83 % 89 % 0 % 1016,8 hPa 0,0 l/m 0,3 km/h (0 Bft) S 180 0 min 0,0 UV-I 9,7 C 9,6 C 0,0 km/h (0 Bft)
12.05.2011 06:10 12,5 C 18,9 C 10,9 C 11,6 C 9,7 C 0,0 C 83 % 89 % 0 % 1016,8 hPa 0,0 l/m 0,0 km/h (0 Bft) N 0 0 min 0,0 UV-I 9,7 C 9,7 C 0,0 km/h (0 Bft)
12.05.2011 06:15 12,5 C 18,9 C 10,9 C 11,6 C 9,9 C 0,0 C 83 % 89 % 0 % 1017,3 hPa 0,0 l/m 0,0 km/h (0 Bft) S 180 0 min 0,0 UV-I 9,7 C 9,9 C 0,0 km/h (0 Bft)
12.05.2011 06:20 12,5 C 18,9 C 11,0 C 11,7 C 10,0 C 0,0 C 83 % 89 % 0 % 1017,3 hPa 0,0 l/m 0,0 km/h (0 Bft) S 180 0 min 0,0 UV-I 9,7 C 10,0 C 0,0 km/h (0 Bft)
12.05.2011 06:25 12,7 C 18,9 C 11,0 C 11,8 C 10,1 C 0,0 C 83 % 89 % 0 % 1017,3 hPa 0,0 l/m 0,0 km/h (0 Bft) S 180 0 min 0,0 UV-I 9,9 C 10,1 C 0,0 km/h (0 Bft)
12.05.2011 06:30 12,7 C 18,9 C 11,1 C 11,8 C 10,1 C 0,0 C 83 % 89 % 0 % 1017,3 hPa 0,0 l/m 0,3 km/h (0 Bft) W-SW 247 0 min 0,0 UV-I 9,9 C 10,1 C 0,0 km/h (0 Bft)
12.05.2011 06:35 12,8 C 18,9 C 11,0 C 12,0 C 10,3 C 0,0 C 82 % 90 % 0 % 1017,2 hPa 0,0 l/m 0,3 km/h (0 Bft) S-SW 202 0 min 0,0 UV-I 9,8 C 10,3 C 0,0 km/h (0 Bft)
12.05.2011 06:40 12,9 C 18,5 C 11,0 C 12,0 C 10,3 C 0,0 C 82 % 90 % 0 % 1017,2 hPa 0,0 l/m 0,0 km/h (0 Bft) S-SW 202 0 min 0,0 UV-I 9,9 C 10,3 C 0,0 km/h (0 Bft)
12.05.2011 06:45 12,9 C 18,5 C 11,0 C 12,1 C 10,6 C 0,0 C 82 % 90 % 0 % 1017,2 hPa 0,0 l/m 0,0 km/h (0 Bft) S-SW 202 0 min 0,0 UV-I 9,9 C 10,6 C 0,0 km/h (0 Bft)
12.05.2011 06:50 12,9 C 18,5 C 11,0 C 12,2 C 10,8 C 0,0 C 82 % 90 % 0 % 1017,2 hPa 0,0 l/m 0,0 km/h (0 Bft) SW 225 0 min 0,0 UV-I 9,9 C 10,8 C 0,0 km/h (0 Bft)
12.05.2011 06:55 13,5 C 18,5 C 11,0 C 12,7 C 11,2 C 0,0 C 82 % 90 % 0 % 1016,8 hPa 0,0 l/m 0,0 km/h (0 Bft) S-SW 202 0 min 0,0 UV-I 10,5 C 11,2 C 0,0 km/h (0 Bft)
12.05.2011 07:00 13,7 C 18,5 C 11,0 C 13,0 C 11,6 C 0,0 C 82 % 90 % 0 % 1016,8 hPa 0,0 l/m 0,0 km/h (0 Bft) S-SW 202 0 min 0,0 UV-I 10,7 C 11,6 C 0,0 km/h (0 Bft)
12.05.2011 07:10 14,0 C 18,5 C 11,0 C 13,5 C 12,6 C 0,0 C 81 % 90 % 0 % 1016,8 hPa 0,0 l/m 0,0 km/h (0 Bft) N 0 0 min 0,0 UV-I 10,8 C 12,6 C 0,0 km/h (0 Bft)
12.05.2011 07:15 14,4 C 18,5 C 11,0 C 13,9 C 13,0 C 0,0 C 81 % 90 % 0 % 1016,6 hPa 0,0 l/m 0,2 km/h (0 Bft) SW 225 0 min 0,0 UV-I 11,2 C 13,0 C 2,4 km/h (1 Bft)
12.05.2011 07:20 14,5 C 18,5 C 11,0 C 14,0 C 13,0 C 0,0 C 80 % 90 % 0 % 1016,6 hPa 0,0 l/m 1,0 km/h (0 Bft) SW 225 0 min 0,0 UV-I 11,1 C 13,0 C 2,1 km/h (1 Bft)
12.05.2011 07:25 14,1 C 18,5 C 11,0 C 13,8 C 13,1 C 0,0 C 81 % 90 % 0 % 1016,6 hPa 0,0 l/m 1,6 km/h (1 Bft) SW 225 0 min 0,1 UV-I 10,9 C 13,1 C 2,4 km/h (1 Bft)
12.05.2011 07:30 14,1 C 18,5 C 11,0 C 13,8 C 13,1 C 0,0 C 81 % 90 % 0 % 1016,6 hPa 0,0 l/m 1,1 km/h (1 Bft) W-SW 247 0 min 0,1 UV-I 10,9 C 13,1 C 0,0 km/h (0 Bft)
12.05.2011 07:35 14,1 C 18,5 C 11,0 C 13,7 C 13,0 C 0,0 C 81 % 90 % 0 % 1016,6 hPa 0,0 l/m 1,1 km/h (1 Bft) S 180 0 min 0,1 UV-I 10,9 C 13,0 C 0,0 km/h (0 Bft)
12.05.2011 07:40 14,1 C 18,5 C 11,0 C 13,8 C 13,2 C 0,0 C 81 % 90 % 0 % 1016,6 hPa 0,0 l/m 0,8 km/h (0 Bft) S 180 0 min 0,1 UV-I 10,9 C 13,2 C 0,0 km/h (0 Bft)
12.05.2011 07:45 14,1 C 18,5 C 11,0 C 13,9 C 13,6 C 0,0 C 81 % 90 % 0 % 1016,6 hPa 0,0 l/m 0,0 km/h (0 Bft) SW 225 0 min 0,1 UV-I 10,9 C 13,6 C 0,0 km/h (0 Bft)
12.05.2011 07:50 14,1 C 18,5 C 11,0 C 14,0 C 13,7 C 0,0 C 82 % 90 % 0 % 1016,6 hPa 0,0 l/m 0,0 km/h (0 Bft) SW 225 0 min 0,1 UV-I 11,1 C 13,7 C 0,0 km/h (0 Bft)
12.05.2011 07:55 14,4 C 18,5 C 11,0 C 14,3 C 14,1 C 0,0 C 82 % 90 % 0 % 1016,2 hPa 0,0 l/m 0,0 km/h (0 Bft) S 180 0 min 0,2 UV-I 11,4 C 14,1 C 0,0 km/h (0 Bft)
12.05.2011 08:00 14,4 C 18,5 C 11,0 C 14,4 C 14,4 C 0,0 C 82 % 90 % 0 % 1016,2 hPa 0,0 l/m 0,3 km/h (0 Bft) SW 225 0 min 0,2 UV-I 11,4 C 14,4 C 2,4 km/h (1 Bft)
12.05.2011 08:10 15,1 C 18,5 C 11,0 C 15,1 C 15,1 C 0,0 C 81 % 90 % 0 % 1016,2 hPa 0,0 l/m 1,9 km/h (1 Bft) N 0 0 min 0,2 UV-I 11,9 C 15,1 C 1,9 km/h (1 Bft)
12.05.2011 08:15 15,1 C 18,5 C 11,0 C 15,2 C 15,2 C 0,1 C 81 % 90 % 3 % 1016,2 hPa 0,0 l/m 1,4 km/h (1 Bft) S 180 0 min 0,3 UV-I 11,9 C 15,2 C 3,1 km/h (1 Bft)
12.05.2011 08:20 15,2 C 18,5 C 11,0 C 15,8 C 15,8 C 0,6 C 80 % 90 % 16 % 1016,2 hPa 0,0 l/m 1,1 km/h (1 Bft) SW 225 0 min 0,3 UV-I 11,8 C 15,8 C 1,9 km/h (1 Bft)
12.05.2011 08:25 15,5 C 18,5 C 11,0 C 16,5 C 16,5 C 1,0 C 80 % 90 % 26 % 1016,2 hPa 0,0 l/m 0,5 km/h (0 Bft) SW 225 0 min 0,3 UV-I 12,1 C 16,5 C 0,0 km/h (0 Bft)
12.05.2011 08:30 15,7 C 18,5 C 11,0 C 16,9 C 16,9 C 1,2 C 80 % 90 % 32 % 1016,2 hPa 0,0 l/m 0,6 km/h (0 Bft) SW 225 0 min 0,3 UV-I 12,3 C 16,9 C 2,6 km/h (1 Bft)
12.05.2011 08:35 15,7 C 18,5 C 11,0 C 17,2 C 17,2 C 1,5 C 79 % 90 % 39 % 1016,1 hPa 0,0 l/m 1,6 km/h (1 Bft) SW 225 0 min 0,4 UV-I 12,1 C 17,2 C 1,6 km/h (1 Bft)
12.05.2011 08:40 15,7 C 18,5 C 11,0 C 17,4 C 17,4 C 1,7 C 79 % 90 % 45 % 1016,1 hPa 0,0 l/m 1,8 km/h (1 Bft) SW 225 0 min 0,4 UV-I 12,1 C 17,4 C 1,6 km/h (1 Bft)
12.05.2011 08:45 15,9 C 18,5 C 11,0 C 18,1 C 18,1 C 2,2 C 79 % 90 % 58 % 1016,1 hPa 0,0 l/m 0,8 km/h (0 Bft) SW 225 0 min 0,5 UV-I 12,3 C 18,1 C 1,9 km/h (1 Bft)
12.05.2011 08:50 15,9 C 18,5 C 11,0 C 18,6 C 18,6 C 2,7 C 79 % 90 % 71 % 1016,1 hPa 0,0 l/m 0,6 km/h (0 Bft) SW 225 0 min 0,5 UV-I 12,3 C 18,6 C 1,8 km/h (1 Bft)
12.05.2011 08:55 16,0 C 18,5 C 11,0 C 19,4 C 19,4 C 3,4 C 79 % 90 % 89 % 1016,1 hPa 0,0 l/m 0,6 km/h (0 Bft) SW 225 5 min 0,6 UV-I 12,4 C 19,4 C 0,0 km/h (0 Bft)
12.05.2011 09:00 16,3 C 18,5 C 11,0 C 19,7 C 19,7 C 3,4 C 79 % 90 % 89 % 1016,1 hPa 0,0 l/m 0,5 km/h (0 Bft) S-SW 202 5 min 0,6 UV-I 12,6 C 19,7 C 1,6 km/h (1 Bft)
12.05.2011 09:10 16,5 C 18,5 C 11,0 C 21,0 C 21,0 C 4,5 C 80 % 90 % 100 % 1016,1 hPa 0,0 l/m 1,3 km/h (1 Bft) N 0 10 min 0,7 UV-I 13,0 C 21,0 C 2,1 km/h (1 Bft)
12.05.2011 09:15 16,7 C 18,5 C 11,0 C 21,3 C 21,3 C 4,6 C 79 % 90 % 100 % 1015,9 hPa 0,0 l/m 1,3 km/h (1 Bft) W-SW 247 5 min 0,8 UV-I 13,0 C 21,3 C 0,0 km/h (0 Bft)
12.05.2011 09:20 16,8 C 18,5 C 11,0 C 21,4 C 21,4 C 4,6 C 80 % 90 % 100 % 1015,9 hPa 0,0 l/m 0,6 km/h (0 Bft) S 180 5 min 0,8 UV-I 13,3 C 21,4 C 0,0 km/h (0 Bft)
12.05.2011 09:25 17,1 C 18,5 C 11,0 C 21,8 C 21,8 C 4,7 C 79 % 90 % 100 % 1015,9 hPa 0,0 l/m 1,0 km/h (0 Bft) SW 225 5 min 0,9 UV-I 13,4 C 21,8 C 4,3 km/h (1 Bft)
12.05.2011 09:30 17,1 C 18,5 C 11,0 C 21,7 C 21,7 C 4,6 C 80 % 90 % 100 % 1015,9 hPa 0,0 l/m 1,8 km/h (1 Bft) SW 225 5 min 0,9 UV-I 13,6 C 21,7 C 1,6 km/h (1 Bft)
12.05.2011 09:35 17,3 C 18,5 C 11,0 C 21,9 C 21,9 C 4,6 C 79 % 90 % 100 % 1016,0 hPa 0,0 l/m 1,3 km/h (1 Bft) NW 315 5 min 1,0 UV-I 13,6 C 21,9 C 0,0 km/h (0 Bft)
12.05.2011 09:40 17,5 C 18,5 C 11,0 C 22,3 C 22,3 C 4,8 C 79 % 90 % 100 % 1016,0 hPa 0,0 l/m 0,5 km/h (0 Bft) O-SO 112 5 min 1,0 UV-I 13,8 C 22,3 C 0,0 km/h (0 Bft)
12.05.2011 09:45 17,7 C 18,5 C 11,0 C 22,0 C 22,0 C 4,3 C 78 % 90 % 100 % 1016,0 hPa 0,0 l/m 1,0 km/h (0 Bft) SW 225 5 min 1,0 UV-I 13,8 C 22,0 C 0,0 km/h (0 Bft)
12.05.2011 09:50 17,7 C 18,5 C 11,0 C 22,0 C 22,0 C 4,3 C 78 % 90 % 100 % 1016,0 hPa 0,0 l/m 0,6 km/h (0 Bft) SW 225 5 min 1,0 UV-I 13,8 C 22,0 C 0,0 km/h (0 Bft)
12.05.2011 09:55 17,9 C 18,5 C 11,0 C 22,0 C 22,0 C 4,1 C 77 % 90 % 100 % 1015,9 hPa 0,0 l/m 0,8 km/h (0 Bft) W-SW 247 5 min 1,0 UV-I 13,8 C 22,0 C 1,8 km/h (1 Bft)
12.05.2011 10:00 18,0 C 18,5 C 11,0 C 21,8 C 21,8 C 3,8 C 77 % 90 % 100 % 1015,9 hPa 0,0 l/m 1,1 km/h (1 Bft) S 180 5 min 1,0 UV-I 13,9 C 21,8 C 2,3 km/h (1 Bft)
12.05.2011 10:10 18,3 C 18,5 C 11,0 C 22,5 C 22,5 C 4,2 C 76 % 90 % 100 % 1015,9 hPa 0,0 l/m 0,5 km/h (0 Bft) N 0 10 min 1,1 UV-I 14,0 C 22,5 C 2,3 km/h (1 Bft)
12.05.2011 10:15 18,5 C 18,5 C 11,0 C 23,4 C 23,4 C 4,9 C 76 % 90 % 100 % 1015,8 hPa 0,0 l/m 0,5 km/h (0 Bft) O-SO 112 5 min 1,2 UV-I 14,2 C 23,4 C 0,0 km/h (0 Bft)
12.05.2011 10:20 18,7 C 18,5 C 11,0 C 24,0 C 24,0 C 5,3 C 75 % 90 % 100 % 1015,8 hPa 0,0 l/m 0,3 km/h (0 Bft) NO 45 5 min 1,2 UV-I 14,2 C 24,0 C 0,0 km/h (0 Bft)
12.05.2011 10:25 18,9 C 18,5 C 11,0 C 24,2 C 24,2 C 5,3 C 75 % 90 % 100 % 1015,8 hPa 0,0 l/m 0,6 km/h (0 Bft) S 180 5 min 1,3 UV-I 14,4 C 24,2 C 1,8 km/h (1 Bft)
12.05.2011 10:30 18,8 C 18,5 C 11,0 C 24,3 C 24,3 C 5,5 C 75 % 90 % 100 % 1015,8 hPa 0,0 l/m 1,3 km/h (1 Bft) W-NW 292 5 min 1,3 UV-I 14,3 C 24,3 C 0,0 km/h (0 Bft)
12.05.2011 10:35 19,0 C 18,5 C 11,0 C 24,5 C 24,5 C 5,5 C 75 % 90 % 100 % 1015,5 hPa 0,0 l/m 1,0 km/h (0 Bft) S-SW 202 5 min 1,3 UV-I 14,5 C 24,5 C 2,1 km/h (1 Bft)
12.05.2011 10:40 19,1 C 18,5 C 11,0 C 24,6 C 24,6 C 5,5 C 74 % 90 % 100 % 1015,5 hPa 0,0 l/m 1,1 km/h (1 Bft) S-SW 202 5 min 1,3 UV-I 14,4 C 24,6 C 3,1 km/h (1 Bft)
12.05.2011 10:45 19,3 C 18,5 C 11,0 C 25,2 C 25,2 C 5,9 C 73 % 90 % 100 % 1015,5 hPa 0,0 l/m 1,0 km/h (0 Bft) S 180 5 min 1,4 UV-I 14,3 C 25,2 C 0,0 km/h (0 Bft)
12.05.2011 10:50 19,5 C 18,5 C 11,0 C 25,7 C 25,7 C 6,2 C 73 % 90 % 100 % 1015,5 hPa 0,0 l/m 0,3 km/h (0 Bft) W-NW 292 5 min 1,4 UV-I 14,5 C 25,7 C 0,0 km/h (0 Bft)
12.05.2011 10:55 19,7 C 18,5 C 11,0 C 26,2 C 26,2 C 6,5 C 72 % 90 % 100 % 1015,1 hPa 0,0 l/m 0,0 km/h (0 Bft) O-SO 112 5 min 1,5 UV-I 14,5 C 26,2 C 0,0 km/h (0 Bft)
12.05.2011 11:00 19,7 C 18,5 C 11,0 C 25,6 C 25,6 C 5,9 C 72 % 90 % 100 % 1015,1 hPa 0,0 l/m 0,3 km/h (0 Bft) S 180 5 min 1,5 UV-I 14,5 C 25,6 C 0,0 km/h (0 Bft)
12.05.2011 11:10 19,9 C 18,5 C 11,0 C 25,1 C 25,1 C 5,2 C 70 % 90 % 100 % 1015,1 hPa 0,0 l/m 2,1 km/h (1 Bft) N 0 10 min 1,5 UV-I 14,3 C 25,1 C 2,7 km/h (1 Bft)
12.05.2011 11:15 20,3 C 18,5 C 11,0 C 24,9 C 24,9 C 4,6 C 70 % 90 % 100 % 1015,2 hPa 0,0 l/m 1,8 km/h (1 Bft) S 180 5 min 1,6 UV-I 14,6 C 24,9 C 4,5 km/h (1 Bft)
12.05.2011 11:20 20,5 C 18,5 C 11,0 C 24,5 C 24,5 C 4,0 C 68 % 90 % 100 % 1015,2 hPa 0,0 l/m 1,4 km/h (1 Bft) N-NO 22 5 min 1,6 UV-I 14,4 C 24,5 C 3,2 km/h (1 Bft)
12.05.2011 11:25 20,9 C 18,5 C 11,0 C 24,1 C 24,1 C 3,2 C 66 % 90 % 84 % 1015,2 hPa 0,0 l/m 1,4 km/h (1 Bft) SO 135 0 min 1,7 UV-I 14,3 C 24,1 C 0,0 km/h (0 Bft)
12.05.2011 11:30 21,0 C 18,5 C 11,0 C 24,3 C 24,3 C 3,3 C 66 % 90 % 87 % 1015,2 hPa 0,0 l/m 1,4 km/h (1 Bft) S 180 5 min 1,7 UV-I 14,4 C 24,3 C 1,9 km/h (1 Bft)
12.05.2011 11:35 21,3 C 18,5 C 11,0 C 26,3 C 26,3 C 5,0 C 65 % 90 % 100 % 1014,9 hPa 0,0 l/m 1,0 km/h (0 Bft) S-SO 157 5 min 1,8 UV-I 14,4 C 26,3 C 0,0 km/h (0 Bft)
12.05.2011 11:40 21,5 C 18,5 C 11,0 C 27,2 C 27,2 C 5,7 C 64 % 90 % 100 % 1014,9 hPa 0,0 l/m 1,1 km/h (1 Bft) NW 315 5 min 1,8 UV-I 14,4 C 27,2 C 3,5 km/h (1 Bft)
12.05.2011 11:45 21,7 C 18,5 C 11,0 C 27,6 C 27,6 C 5,9 C 62 % 90 % 100 % 1014,9 hPa 0,0 l/m 2,4 km/h (1 Bft) S 180 5 min 1,8 UV-I 14,1 C 27,6 C 5,8 km/h (2 Bft)
12.05.2011 11:50 21,7 C 18,5 C 11,0 C 27,5 C 27,5 C 5,8 C 61 % 90 % 100 % 1014,9 hPa 0,0 l/m 3,1 km/h (1 Bft) S 180 5 min 1,8 UV-I 13,8 C 27,5 C 3,2 km/h (1 Bft)
12.05.2011 11:55 21,9 C 18,5 C 11,0 C 27,9 C 27,9 C 6,0 C 61 % 90 % 100 % 1015,0 hPa 0,0 l/m 2,3 km/h (1 Bft) O-SO 112 5 min 2,0 UV-I 14,0 C 27,9 C 0,0 km/h (0 Bft)
12.05.2011 12:00 21,9 C 18,5 C 11,0 C 28,2 C 28,2 C 6,3 C 61 % 90 % 100 % 1015,0 hPa 0,0 l/m 1,8 km/h (1 Bft) SW 225 5 min 2,0 UV-I 14,0 C 28,2 C 6,9 km/h (2 Bft)
12.05.2011 12:10 22,1 C 18,5 C 11,0 C 28,4 C 28,4 C 6,3 C 59 % 90 % 100 % 1015,0 hPa 0,0 l/m 2,6 km/h (1 Bft) N 0 10 min 2,0 UV-I 13,7 C 28,4 C 0,0 km/h (0 Bft)
12.05.2011 12:15 22,2 C 18,5 C 11,0 C 28,8 C 28,8 C 6,6 C 58 % 90 % 100 % 1014,8 hPa 0,0 l/m 1,3 km/h (1 Bft) N-NW 337 5 min 2,2 UV-I 13,5 C 28,8 C 0,0 km/h (0 Bft)
12.05.2011 12:20 22,4 C 18,5 C 11,0 C 29,3 C 29,3 C 6,9 C 57 % 90 % 100 % 1014,8 hPa 0,0 l/m 0,6 km/h (0 Bft) W-SW 247 5 min 2,2 UV-I 13,5 C 29,3 C 3,9 km/h (1 Bft)
12.05.2011 12:25 22,7 C 18,5 C 11,0 C 29,6 C 29,6 C 6,9 C 56 % 90 % 100 % 1014,8 hPa 0,0 l/m 1,6 km/h (1 Bft) N-NW 337 5 min 3,3 UV-I 13,5 C 29,6 C 2,3 km/h (1 Bft)
12.05.2011 12:30 22,9 C 18,5 C 11,0 C 29,6 C 29,6 C 6,7 C 56 % 90 % 100 % 1014,8 hPa 0,0 l/m 2,6 km/h (1 Bft) S-SW 202 5 min 3,3 UV-I 13,6 C 29,6 C 0,0 km/h (0 Bft)
12.05.2011 12:35 22,8 C 18,5 C 11,0 C 29,3 C 29,3 C 6,5 C 53 % 90 % 100 % 1014,6 hPa 0,0 l/m 2,9 km/h (1 Bft) SW 225 5 min 3,0 UV-I 12,7 C 29,3 C 9,7 km/h (2 Bft)
12.05.2011 12:40 22,7 C 18,5 C 11,0 C 29,0 C 29,0 C 6,3 C 53 % 90 % 100 % 1014,6 hPa 0,0 l/m 3,1 km/h (1 Bft) W 270 5 min 3,0 UV-I 12,6 C 29,0 C 2,3 km/h (1 Bft)
12.05.2011 12:45 22,8 C 18,5 C 11,0 C 28,4 C 28,4 C 5,6 C 54 % 90 % 100 % 1014,6 hPa 0,0 l/m 2,7 km/h (1 Bft) NW 315 5 min 2,4 UV-I 13,0 C 28,4 C 1,9 km/h (1 Bft)
12.05.2011 12:50 22,7 C 18,5 C 11,0 C 28,0 C 28,0 C 5,3 C 55 % 90 % 100 % 1014,6 hPa 0,0 l/m 2,7 km/h (1 Bft) W-SW 247 5 min 2,4 UV-I 13,2 C 28,0 C 2,7 km/h (1 Bft)
12.05.2011 12:55 22,7 C 18,5 C 11,0 C 27,5 C 27,5 C 4,8 C 56 % 90 % 100 % 1014,6 hPa 0,0 l/m 2,1 km/h (1 Bft) N 360 5 min 1,8 UV-I 13,5 C 27,5 C 1,8 km/h (1 Bft)
12.05.2011 13:00 22,7 C 18,5 C 11,0 C 27,3 C 27,3 C 4,6 C 56 % 90 % 100 % 1014,6 hPa 0,0 l/m 1,6 km/h (1 Bft) NW 315 5 min 1,8 UV-I 13,5 C 27,3 C 3,9 km/h (1 Bft)
12.05.2011 13:10 22,9 C 18,5 C 11,0 C 27,7 C 27,7 C 4,8 C 55 % 90 % 100 % 1014,6 hPa 0,0 l/m 1,6 km/h (1 Bft) N 0 10 min 2,2 UV-I 13,4 C 27,7 C 1,8 km/h (1 Bft)
12.05.2011 13:15 22,9 C 18,5 C 11,0 C 28,2 C 28,2 C 5,3 C 54 % 90 % 100 % 1014,3 hPa 0,0 l/m 0,8 km/h (0 Bft) SO 135 5 min 2,4 UV-I 13,1 C 28,2 C 0,0 km/h (0 Bft)
12.05.2011 13:20 22,8 C 18,5 C 11,0 C 28,4 C 28,4 C 5,6 C 53 % 90 % 100 % 1014,3 hPa 0,0 l/m 0,5 km/h (0 Bft) SO 135 5 min 2,4 UV-I 12,7 C 28,4 C 0,0 km/h (0 Bft)
12.05.2011 13:25 22,8 C 18,5 C 11,0 C 27,8 C 27,8 C 5,0 C 54 % 90 % 100 % 1014,3 hPa 0,0 l/m 1,9 km/h (1 Bft) W-SW 247 5 min 1,8 UV-I 13,0 C 27,8 C 3,4 km/h (1 Bft)
12.05.2011 13:30 22,8 C 18,5 C 11,0 C 27,2 C 27,2 C 4,4 C 52 % 90 % 100 % 1014,3 hPa 0,0 l/m 3,5 km/h (1 Bft) W-SW 247 5 min 1,8 UV-I 12,4 C 27,2 C 6,8 km/h (2 Bft)
12.05.2011 13:35 22,9 C 18,5 C 11,0 C 26,7 C 26,7 C 3,8 C 49 % 90 % 100 % 1014,1 hPa 0,0 l/m 4,7 km/h (1 Bft) S 180 5 min 2,0 UV-I 11,6 C 26,7 C 3,5 km/h (1 Bft)
12.05.2011 13:40 23,1 C 18,5 C 11,0 C 26,7 C 26,7 C 3,6 C 49 % 90 % 95 % 1014,1 hPa 0,0 l/m 3,7 km/h (1 Bft) NO 45 5 min 2,0 UV-I 11,8 C 26,7 C 0,0 km/h (0 Bft)
12.05.2011 13:45 22,9 C 18,5 C 11,0 C 26,9 C 26,9 C 4,0 C 48 % 90 % 100 % 1014,1 hPa 0,0 l/m 1,9 km/h (1 Bft) SW 225 5 min 1,6 UV-I 11,3 C 26,9 C 4,2 km/h (1 Bft)
12.05.2011 13:50 22,8 C 18,5 C 11,0 C 26,3 C 26,3 C 3,5 C 48 % 90 % 92 % 1014,1 hPa 0,0 l/m 2,6 km/h (1 Bft) S 180 5 min 1,6 UV-I 11,2 C 26,3 C 5,0 km/h (1 Bft)
12.05.2011 13:55 22,5 C 18,5 C 11,0 C 25,1 C 25,1 C 2,6 C 48 % 90 % 68 % 1014,1 hPa 0,0 l/m 5,1 km/h (1 Bft) S 180 0 min 0,8 UV-I 10,9 C 25,1 C 5,1 km/h (1 Bft)
12.05.2011 14:00 22,4 C 18,5 C 11,0 C 24,4 C 24,4 C 2,0 C 49 % 90 % 53 % 1014,1 hPa 0,0 l/m 4,7 km/h (1 Bft) S 180 0 min 0,8 UV-I 11,2 C 24,4 C 4,5 km/h (1 Bft)
12.05.2011 14:10 21,9 C 18,5 C 11,0 C 22,3 C 22,3 C 0,4 C 54 % 90 % 11 % 1014,1 hPa 0,0 l/m 6,1 km/h (2 Bft) N 0 0 min 0,4 UV-I 12,2 C 22,3 C 23,7 km/h (4 Bft)
12.05.2011 14:15 21,3 C 18,5 C 11,0 C 21,1 C 20,8 C 0,0 C 57 % 90 % 0 % 1014,2 hPa 0,0 l/m 5,1 km/h (1 Bft) SW 225 0 min 0,3 UV-I 12,4 C 20,8 C 2,9 km/h (1 Bft)
12.05.2011 14:20 21,3 C 18,5 C 11,0 C 20,9 C 20,0 C 0,0 C 59 % 90 % 0 % 1014,2 hPa 0,0 l/m 2,4 km/h (1 Bft) SO 135 0 min 0,3 UV-I 13,0 C 20,0 C 1,8 km/h (1 Bft)
12.05.2011 14:25 20,9 C 18,5 C 11,0 C 20,5 C 19,6 C 0,0 C 60 % 90 % 0 % 1014,2 hPa 0,0 l/m 3,4 km/h (1 Bft) N-NO 22 0 min 0,5 UV-I 12,8 C 19,6 C 1,6 km/h (1 Bft)
12.05.2011 14:30 20,8 C 18,5 C 11,0 C 20,4 C 19,6 C 0,0 C 61 % 90 % 0 % 1014,2 hPa 0,0 l/m 3,2 km/h (1 Bft) S-SO 157 0 min 0,5 UV-I 13,0 C 19,6 C 2,9 km/h (1 Bft)
12.05.2011 14:35 20,7 C 18,5 C 11,0 C 20,4 C 19,8 C 0,0 C 61 % 90 % 0 % 1014,1 hPa 0,0 l/m 1,6 km/h (1 Bft) S 180 0 min 0,5 UV-I 12,9 C 19,8 C 3,2 km/h (1 Bft)
12.05.2011 14:40 20,7 C 18,5 C 11,0 C 20,5 C 20,0 C 0,0 C 60 % 90 % 0 % 1014,1 hPa 0,0 l/m 1,9 km/h (1 Bft) O-SO 112 0 min 0,5 UV-I 12,7 C 20,0 C 4,2 km/h (1 Bft)
12.05.2011 14:45 20,8 C 18,5 C 11,0 C 20,7 C 20,6 C 0,0 C 60 % 90 % 0 % 1014,1 hPa 0,0 l/m 1,6 km/h (1 Bft) NO 45 0 min 1,0 UV-I 12,7 C 20,6 C 1,6 km/h (1 Bft)
12.05.2011 14:50 20,9 C 18,5 C 11,0 C 20,9 C 20,9 C 0,0 C 59 % 90 % 0 % 1014,1 hPa 0,0 l/m 1,4 km/h (1 Bft) O-NO 67 0 min 1,0 UV-I 12,6 C 20,9 C 0,0 km/h (0 Bft)
12.05.2011 14:55 20,7 C 18,5 C 11,0 C 21,4 C 21,4 C 0,7 C 59 % 90 % 18 % 1013,8 hPa 0,0 l/m 1,4 km/h (1 Bft) S-SO 157 0 min 0,9 UV-I 12,4 C 21,4 C 6,1 km/h (2 Bft)
12.05.2011 15:00 20,8 C 18,5 C 11,0 C 21,4 C 21,4 C 0,6 C 60 % 90 % 16 % 1013,8 hPa 0,0 l/m 1,6 km/h (1 Bft) S 180 0 min 0,9 UV-I 12,7 C 21,4 C 3,4 km/h (1 Bft)
12.05.2011 15:10 21,1 C 18,5 C 11,0 C 21,9 C 21,9 C 0,8 C 59 % 90 % 21 % 1013,8 hPa 0,0 l/m 1,8 km/h (1 Bft) N 0 0 min 1,0 UV-I 12,8 C 21,9 C 0,0 km/h (0 Bft)
12.05.2011 15:15 21,0 C 18,5 C 11,0 C 22,6 C 22,6 C 1,6 C 59 % 90 % 42 % 1013,9 hPa 0,0 l/m 1,4 km/h (1 Bft) S 180 0 min 1,3 UV-I 12,7 C 22,6 C 1,8 km/h (1 Bft)
12.05.2011 15:20 20,9 C 18,5 C 11,0 C 23,1 C 23,1 C 2,2 C 59 % 90 % 58 % 1013,9 hPa 0,0 l/m 0,8 km/h (0 Bft) O-SO 112 0 min 1,3 UV-I 12,6 C 23,1 C 0,0 km/h (0 Bft)
12.05.2011 15:25 20,9 C 18,5 C 11,0 C 23,6 C 23,6 C 2,7 C 59 % 90 % 71 % 1013,9 hPa 0,0 l/m 0,8 km/h (0 Bft) O-SO 112 0 min 1,1 UV-I 12,6 C 23,6 C 3,5 km/h (1 Bft)
12.05.2011 15:30 21,1 C 18,5 C 11,0 C 23,4 C 23,4 C 2,3 C 59 % 90 % 61 % 1013,9 hPa 0,0 l/m 1,6 km/h (1 Bft) W 270 0 min 1,1 UV-I 12,8 C 23,4 C 10,8 km/h (2 Bft)
12.05.2011 15:35 20,9 C 18,5 C 11,0 C 23,0 C 23,0 C 2,1 C 58 % 90 % 55 % 1013,8 hPa 0,0 l/m 2,1 km/h (1 Bft) O 90 0 min 0,9 UV-I 12,3 C 23,0 C 5,5 km/h (1 Bft)
12.05.2011 15:40 20,9 C 18,5 C 11,0 C 22,9 C 22,9 C 2,0 C 58 % 90 % 53 % 1013,8 hPa 0,0 l/m 2,1 km/h (1 Bft) W-SW 247 0 min 0,9 UV-I 12,3 C 22,9 C 0,0 km/h (0 Bft)
12.05.2011 15:45 20,8 C 18,5 C 11,0 C 22,7 C 22,7 C 1,9 C 58 % 90 % 50 % 1013,8 hPa 0,0 l/m 1,6 km/h (1 Bft) S-SO 157 0 min 0,8 UV-I 12,2 C 22,7 C 0,0 km/h (0 Bft)
12.05.2011 15:50 20,7 C 18,5 C 11,0 C 22,5 C 22,5 C 1,8 C 58 % 90 % 47 % 1013,8 hPa 0,0 l/m 1,0 km/h (0 Bft) W-NW 292 0 min 0,8 UV-I 12,1 C 22,5 C 0,0 km/h (0 Bft)
12.05.2011 15:55 20,7 C 18,5 C 11,0 C 22,2 C 22,2 C 1,5 C 60 % 90 % 39 % 1013,5 hPa 0,0 l/m 0,8 km/h (0 Bft) SW 225 0 min 0,5 UV-I 12,7 C 22,2 C 5,0 km/h (1 Bft)
12.05.2011 16:00 20,7 C 18,5 C 11,0 C 21,8 C 21,8 C 1,1 C 60 % 90 % 29 % 1013,5 hPa 0,0 l/m 1,4 km/h (1 Bft) S 180 0 min 0,5 UV-I 12,7 C 21,8 C 4,2 km/h (1 Bft)
12.05.2011 16:10 20,7 C 18,5 C 11,0 C 21,5 C 21,5 C 0,8 C 60 % 90 % 21 % 1013,5 hPa 0,0 l/m 2,1 km/h (1 Bft) N 0 0 min 0,6 UV-I 12,7 C 21,5 C 1,9 km/h (1 Bft)
12.05.2011 16:15 20,6 C 18,5 C 11,0 C 21,6 C 21,6 C 1,0 C 60 % 90 % 26 % 1013,7 hPa 0,0 l/m 1,0 km/h (0 Bft) SW 225 0 min 0,7 UV-I 12,6 C 21,6 C 0,0 km/h (0 Bft)
12.05.2011 16:20 20,7 C 18,5 C 11,0 C 21,9 C 21,9 C 1,2 C 60 % 90 % 32 % 1013,7 hPa 0,0 l/m 0,5 km/h (0 Bft) W-NW 292 0 min 0,7 UV-I 12,7 C 21,9 C 0,0 km/h (0 Bft)
12.05.2011 16:25 20,7 C 18,5 C 11,0 C 22,3 C 22,3 C 1,6 C 60 % 90 % 42 % 1013,7 hPa 0,0 l/m 0,6 km/h (0 Bft) SW 225 0 min 0,7 UV-I 12,7 C 22,3 C 4,5 km/h (1 Bft)
12.05.2011 16:30 20,7 C 18,5 C 11,0 C 22,3 C 22,3 C 1,6 C 60 % 90 % 42 % 1013,7 hPa 0,0 l/m 0,8 km/h (0 Bft) SO 135 0 min 0,7 UV-I 12,7 C 22,3 C 2,3 km/h (1 Bft)
12.05.2011 16:35 20,7 C 18,5 C 11,0 C 22,4 C 22,4 C 1,7 C 60 % 90 % 45 % 1013,5 hPa 0,0 l/m 1,0 km/h (0 Bft) O-SO 112 0 min 0,7 UV-I 12,7 C 22,4 C 0,0 km/h (0 Bft)
12.05.2011 16:40 20,8 C 18,5 C 11,0 C 22,6 C 22,6 C 1,8 C 60 % 90 % 47 % 1013,5 hPa 0,0 l/m 1,0 km/h (0 Bft) O-SO 112 0 min 0,7 UV-I 12,7 C 22,6 C 3,9 km/h (1 Bft)
12.05.2011 16:45 21,1 C 18,5 C 11,0 C 23,2 C 23,2 C 2,1 C 59 % 90 % 55 % 1013,5 hPa 0,0 l/m 1,8 km/h (1 Bft) S 180 0 min 0,8 UV-I 12,8 C 23,2 C 4,5 km/h (1 Bft)
12.05.2011 16:50 21,2 C 18,5 C 11,0 C 23,4 C 23,4 C 2,2 C 59 % 90 % 58 % 1013,5 hPa 0,0 l/m 1,9 km/h (1 Bft) SO 135 0 min 0,8 UV-I 12,9 C 23,4 C 0,0 km/h (0 Bft)
12.05.2011 16:55 21,2 C 18,5 C 20,3 C 23,4 C 23,4 C 2,2 C 58 % 65 % 58 % 1013,4 hPa 0,0 l/m 3,1 km/h (1 Bft) S 180 0 min 0,7 UV-I 12,6 C 23,4 C 10,6 km/h (2 Bft)
12.05.2011 17:00 21,0 C 18,5 C 20,1 C 22,8 C 22,8 C 1,8 C 58 % 64 % 47 % 1013,4 hPa 0,0 l/m 3,2 km/h (1 Bft) SW 225 0 min 0,7 UV-I 12,4 C 22,8 C 2,9 km/h (1 Bft)
12.05.2011 17:10 20,8 C 18,5 C 19,8 C 21,5 C 21,5 C 0,7 C 59 % 65 % 18 % 1013,4 hPa 0,0 l/m 3,5 km/h (1 Bft) N 0 0 min 0,3 UV-I 12,5 C 21,5 C 1,6 km/h (1 Bft)
12.05.2011 17:15 20,7 C 18,5 C 19,6 C 21,3 C 21,3 C 0,6 C 60 % 66 % 16 % 1013,2 hPa 0,0 l/m 1,9 km/h (1 Bft) S 180 0 min 0,3 UV-I 12,7 C 21,3 C 2,9 km/h (1 Bft)
12.05.2011 17:20 20,7 C 18,5 C 19,6 C 21,1 C 21,1 C 0,4 C 61 % 67 % 11 % 1013,2 hPa 0,0 l/m 2,3 km/h (1 Bft) SO 135 0 min 0,3 UV-I 12,9 C 21,1 C 4,7 km/h (1 Bft)
12.05.2011 17:25 20,7 C 18,5 C 19,6 C 21,1 C 21,1 C 0,4 C 62 % 68 % 11 % 1013,2 hPa 0,0 l/m 1,9 km/h (1 Bft) SO 135 0 min 0,4 UV-I 13,2 C 21,1 C 1,8 km/h (1 Bft)
12.05.2011 17:30 20,5 C 18,5 C 19,5 C 21,2 C 21,2 C 0,7 C 62 % 67 % 18 % 1013,2 hPa 0,0 l/m 1,3 km/h (1 Bft) S-SO 157 0 min 0,4 UV-I 13,0 C 21,2 C 3,9 km/h (1 Bft)
12.05.2011 17:35 20,7 C 18,5 C 19,5 C 21,2 C 21,2 C 0,5 C 62 % 67 % 13 % 1013,2 hPa 0,0 l/m 1,3 km/h (1 Bft) S 180 0 min 0,3 UV-I 13,2 C 21,2 C 0,0 km/h (0 Bft)
12.05.2011 17:40 20,6 C 18,5 C 19,4 C 21,5 C 21,5 C 0,9 C 62 % 67 % 24 % 1013,2 hPa 0,0 l/m 1,1 km/h (1 Bft) NO 45 0 min 0,3 UV-I 13,1 C 21,5 C 0,0 km/h (0 Bft)
12.05.2011 17:45 21,3 C 18,5 C 20,0 C 22,9 C 22,9 C 1,6 C 61 % 68 % 42 % 1013,2 hPa 0,0 l/m 0,2 km/h (0 Bft) S-SO 157 0 min 0,4 UV-I 13,5 C 22,9 C 1,8 km/h (1 Bft)
12.05.2011 17:50 21,9 C 18,5 C 20,5 C 24,7 C 24,7 C 2,8 C 60 % 65 % 74 % 1013,2 hPa 0,0 l/m 1,1 km/h (1 Bft) N-NW 337 0 min 0,4 UV-I 13,8 C 24,7 C 3,5 km/h (1 Bft)
12.05.2011 17:55 21,5 C 18,5 C 20,5 C 25,4 C 25,4 C 3,9 C 60 % 64 % 100 % 1013,2 hPa 0,0 l/m 2,3 km/h (1 Bft) W 270 5 min 0,5 UV-I 13,4 C 25,4 C 0,0 km/h (0 Bft)
12.05.2011 18:00 21,2 C 18,5 C 20,2 C 24,8 C 24,8 C 3,6 C 60 % 65 % 95 % 1013,2 hPa 0,0 l/m 1,8 km/h (1 Bft) S-SO 157 5 min 0,5 UV-I 13,1 C 24,8 C 3,2 km/h (1 Bft)
12.05.2011 18:10 21,6 C 18,5 C 20,4 C 23,5 C 23,5 C 1,9 C 60 % 66 % 50 % 1013,2 hPa 0,0 l/m 3,1 km/h (1 Bft) N 0 0 min 0,3 UV-I 13,5 C 23,5 C 6,3 km/h (2 Bft)
12.05.2011 18:15 21,9 C 18,5 C 20,5 C 24,4 C 24,4 C 2,5 C 59 % 64 % 66 % 1013,1 hPa 0,0 l/m 2,4 km/h (1 Bft) NO 45 0 min 0,3 UV-I 13,5 C 24,4 C 0,0 km/h (0 Bft)
12.05.2011 18:20 21,9 C 18,5 C 20,4 C 25,0 C 25,0 C 3,1 C 59 % 65 % 82 % 1013,1 hPa 0,0 l/m 1,3 km/h (1 Bft) SO 135 0 min 0,3 UV-I 13,5 C 25,0 C 2,3 km/h (1 Bft)
12.05.2011 18:25 22,3 C 18,5 C 20,9 C 25,5 C 25,5 C 3,2 C 58 % 64 % 84 % 1013,1 hPa 0,0 l/m 1,8 km/h (1 Bft) S-SO 157 0 min 0,2 UV-I 13,6 C 25,5 C 4,7 km/h (1 Bft)
12.05.2011 18:30 22,4 C 18,5 C 21,0 C 25,6 C 25,6 C 3,2 C 56 % 61 % 84 % 1013,1 hPa 0,0 l/m 1,9 km/h (1 Bft) N-NW 337 0 min 0,2 UV-I 13,2 C 25,6 C 0,0 km/h (0 Bft)
12.05.2011 18:35 22,1 C 18,5 C 20,6 C 25,7 C 25,7 C 3,6 C 55 % 60 % 95 % 1012,6 hPa 0,0 l/m 1,1 km/h (1 Bft) S-SO 157 5 min 0,2 UV-I 12,6 C 25,7 C 0,0 km/h (0 Bft)
12.05.2011 18:40 22,0 C 18,5 C 20,4 C 25,7 C 25,7 C 3,7 C 55 % 61 % 97 % 1012,6 hPa 0,0 l/m 0,8 km/h (0 Bft) S 180 5 min 0,2 UV-I 12,5 C 25,7 C 5,6 km/h (1 Bft)
12.05.2011 18:45 22,1 C 18,5 C 20,7 C 25,0 C 25,0 C 2,9 C 54 % 59 % 76 % 1012,6 hPa 0,0 l/m 2,4 km/h (1 Bft) S-SO 157 0 min 0,1 UV-I 12,3 C 25,0 C 6,9 km/h (2 Bft)
12.05.2011 18:50 21,7 C 18,5 C 20,4 C 23,9 C 23,9 C 2,2 C 54 % 58 % 58 % 1012,6 hPa 0,0 l/m 3,1 km/h (1 Bft) SW 225 0 min 0,1 UV-I 12,0 C 23,9 C 1,8 km/h (1 Bft)
12.05.2011 18:55 21,2 C 18,5 C 20,1 C 21,8 C 21,8 C 0,6 C 54 % 58 % 16 % 1012,6 hPa 0,0 l/m 3,5 km/h (1 Bft) NO 45 0 min 0,1 UV-I 11,5 C 21,8 C 3,1 km/h (1 Bft)
12.05.2011 19:00 21,1 C 18,5 C 19,9 C 21,1 C 21,0 C 0,0 C 55 % 59 % 0 % 1012,6 hPa 0,0 l/m 3,4 km/h (1 Bft) SW 225 0 min 0,1 UV-I 11,7 C 21,0 C 1,6 km/h (1 Bft)
12.05.2011 19:10 20,6 C 18,5 C 19,3 C 20,4 C 20,0 C 0,0 C 56 % 62 % 0 % 1012,6 hPa 0,0 l/m 1,9 km/h (1 Bft) N 0 0 min 0,0 UV-I 11,5 C 20,0 C 5,8 km/h (2 Bft)
12.05.2011 19:15 20,4 C 18,5 C 19,1 C 20,1 C 19,4 C 0,0 C 57 % 62 % 0 % 1012,6 hPa 0,0 l/m 2,1 km/h (1 Bft) S 180 0 min 0,0 UV-I 11,6 C 19,4 C 0,0 km/h (0 Bft)
12.05.2011 19:20 20,3 C 18,5 C 19,1 C 19,9 C 19,1 C 0,0 C 57 % 63 % 0 % 1012,6 hPa 0,0 l/m 1,9 km/h (1 Bft) O-NO 67 0 min 0,0 UV-I 11,5 C 19,1 C 0,0 km/h (0 Bft)
12.05.2011 19:25 20,3 C 18,5 C 18,8 C 19,8 C 18,8 C 0,0 C 58 % 64 % 0 % 1012,6 hPa 0,0 l/m 1,0 km/h (0 Bft) SO 135 0 min 0,0 UV-I 11,8 C 18,8 C 2,9 km/h (1 Bft)
12.05.2011 19:30 20,2 C 18,5 C 18,7 C 19,7 C 18,6 C 0,0 C 58 % 64 % 0 % 1012,6 hPa 0,0 l/m 0,8 km/h (0 Bft) S 180 0 min 0,0 UV-I 11,7 C 18,6 C 0,0 km/h (0 Bft)
12.05.2011 19:35 20,1 C 18,5 C 18,7 C 19,5 C 18,4 C 0,0 C 58 % 64 % 0 % 1012,8 hPa 0,0 l/m 1,8 km/h (1 Bft) S-SO 157 0 min 0,0 UV-I 11,6 C 18,4 C 2,4 km/h (1 Bft)
12.05.2011 19:40 19,9 C 18,5 C 18,4 C 19,4 C 18,3 C 0,0 C 59 % 65 % 0 % 1012,8 hPa 0,0 l/m 2,3 km/h (1 Bft) W 270 0 min 0,0 UV-I 11,6 C 18,3 C 2,1 km/h (1 Bft)
12.05.2011 19:45 19,9 C 18,5 C 18,3 C 19,3 C 18,1 C 0,0 C 60 % 66 % 0 % 1012,8 hPa 0,0 l/m 1,8 km/h (1 Bft) W-SW 247 0 min 0,0 UV-I 11,9 C 18,1 C 0,0 km/h (0 Bft)
12.05.2011 19:51 19,7 C 18,5 C 18,3 C 19,1 C 17,9 C 0,0 C 60 % 67 % 0 % 1012,8 hPa 0,0 l/m 1,8 km/h (1 Bft) W-SW 247 0 min 0,0 UV-I 11,7 C 17,9 C 3,4 km/h (1 Bft)
12.05.2011 19:55 19,6 C 18,5 C 18,0 C 19,0 C 17,7 C 0,0 C 60 % 67 % 0 % 1013,2 hPa 0,0 l/m 1,6 km/h (1 Bft) SW 225 0 min 0,0 UV-I 11,6 C 17,7 C 1,6 km/h (1 Bft)
12.05.2011 20:00 19,6 C 18,5 C 18,0 C 19,0 C 17,7 C 0,0 C 61 % 67 % 0 % 1013,2 hPa 0,0 l/m 1,8 km/h (1 Bft) S 180 0 min 0,0 UV-I 11,9 C 17,7 C 3,7 km/h (1 Bft)
12.05.2011 20:10 19,3 C 18,5 C 17,8 C 18,7 C 17,5 C 0,0 C 63 % 70 % 0 % 1013,2 hPa 0,0 l/m 4,5 km/h (1 Bft) N 0 0 min 0,0 UV-I 12,1 C 17,5 C 6,3 km/h (2 Bft)
12.05.2011 20:15 18,5 C 18,5 C 16,0 C 17,8 C 16,0 C 0,0 C 69 % 79 % 0 % 1013,8 hPa 2,1 l/m 9,2 km/h (2 Bft) S-SO 157 0 min 0,0 UV-I 12,7 C 16,0 C 25,7 km/h (4 Bft)
12.05.2011 20:20 17,7 C 19,2 C 14,5 C 16,7 C 13,9 C 0,0 C 72 % 84 % 0 % 1013,8 hPa 2,1 l/m 10,8 km/h (2 Bft) SW 225 0 min 0,0 UV-I 12,6 C 13,9 C 9,3 km/h (2 Bft)
12.05.2011 20:25 17,0 C 19,3 C 14,3 C 15,9 C 13,6 C 0,0 C 73 % 87 % 0 % 1013,8 hPa 2,1 l/m 6,1 km/h (2 Bft) NW 315 0 min 0,0 UV-I 12,1 C 13,6 C 2,7 km/h (1 Bft)
12.05.2011 20:30 16,7 C 19,3 C 14,1 C 15,6 C 13,5 C 0,0 C 75 % 89 % 0 % 1013,8 hPa 0,7 l/m 2,9 km/h (1 Bft) W-SW 247 0 min 0,0 UV-I 12,2 C 13,5 C 3,4 km/h (1 Bft)
12.05.2011 20:35 16,1 C 19,3 C 13,7 C 15,1 C 13,2 C 0,0 C 77 % 89 % 0 % 1013,6 hPa 0,7 l/m 2,4 km/h (1 Bft) NO 45 0 min 0,0 UV-I 12,1 C 13,2 C 1,8 km/h (1 Bft)
12.05.2011 20:40 16,0 C 19,3 C 13,7 C 15,1 C 13,2 C 0,0 C 78 % 90 % 0 % 1013,6 hPa 0,0 l/m 2,3 km/h (1 Bft) NO 45 0 min 0,0 UV-I 12,2 C 13,2 C 1,9 km/h (1 Bft)
12.05.2011 20:45 15,8 C 19,2 C 13,6 C 14,9 C 13,0 C 0,0 C 79 % 91 % 0 % 1013,6 hPa 0,0 l/m 1,6 km/h (1 Bft) N-NO 22 0 min 0,0 UV-I 12,2 C 13,0 C 1,9 km/h (1 Bft)
12.05.2011 20:50 15,9 C 19,2 C 13,5 C 14,9 C 13,0 C 0,0 C 79 % 91 % 0 % 1013,6 hPa 0,0 l/m 1,8 km/h (1 Bft) NO 45 0 min 0,0 UV-I 12,3 C 13,0 C 0,0 km/h (0 Bft)
12.05.2011 20:55 15,9 C 19,2 C 13,6 C 14,9 C 13,0 C 0,0 C 80 % 91 % 0 % 1013,7 hPa 0,0 l/m 1,3 km/h (1 Bft) W 270 0 min 0,0 UV-I 12,5 C 13,0 C 1,8 km/h (1 Bft)
12.05.2011 21:00 16,0 C 19,2 C 13,7 C 15,0 C 13,0 C 0,0 C 81 % 92 % 0 % 1013,7 hPa 0,0 l/m 0,3 km/h (0 Bft) S 180 0 min 0,0 UV-I 12,7 C 13,0 C 0,0 km/h (0 Bft)
12.05.2011 21:10 15,8 C 19,2 C 13,5 C 14,9 C 13,1 C 0,0 C 81 % 92 % 0 % 1013,7 hPa 0,0 l/m 0,0 km/h (0 Bft) N 0 0 min 0,0 UV-I 12,5 C 13,1 C 0,0 km/h (0 Bft)
12.05.2011 21:15 15,7 C 19,2 C 13,6 C 14,8 C 13,1 C 0,0 C 81 % 93 % 0 % 1014,1 hPa 0,0 l/m 0,2 km/h (0 Bft) S 180 0 min 0,0 UV-I 12,4 C 13,1 C 0,0 km/h (0 Bft)
12.05.2011 21:20 15,6 C 19,2 C 13,6 C 14,8 C 13,1 C 0,0 C 81 % 93 % 0 % 1014,1 hPa 0,0 l/m 0,3 km/h (0 Bft) S-SO 157 0 min 0,0 UV-I 12,3 C 13,1 C 2,1 km/h (1 Bft)
12.05.2011 21:25 15,6 C 19,2 C 13,5 C 14,7 C 13,0 C 0,0 C 81 % 93 % 0 % 1014,1 hPa 0,0 l/m 0,8 km/h (0 Bft) S-SW 202 0 min 0,0 UV-I 12,3 C 13,0 C 0,0 km/h (0 Bft)
12.05.2011 21:30 15,6 C 19,2 C 13,5 C 14,7 C 13,0 C 0,0 C 81 % 93 % 0 % 1014,1 hPa 0,0 l/m 0,5 km/h (0 Bft) S 180 0 min 0,0 UV-I 12,3 C 13,0 C 0,0 km/h (0 Bft)
12.05.2011 21:35 15,6 C 19,2 C 13,5 C 14,7 C 12,9 C 0,0 C 81 % 93 % 0 % 1014,6 hPa 0,0 l/m 0,2 km/h (0 Bft) O-SO 112 0 min 0,0 UV-I 12,3 C 12,9 C 1,9 km/h (1 Bft)
12.05.2011 21:40 15,6 C 19,2 C 13,5 C 14,7 C 12,9 C 0,0 C 82 % 93 % 0 % 1014,6 hPa 0,0 l/m 0,8 km/h (0 Bft) SO 135 0 min 0,0 UV-I 12,5 C 12,9 C 2,1 km/h (1 Bft)
12.05.2011 21:45 15,5 C 19,1 C 13,4 C 14,6 C 12,9 C 0,0 C 81 % 93 % 0 % 1014,6 hPa 0,0 l/m 0,8 km/h (0 Bft) O-SO 112 0 min 0,0 UV-I 12,3 C 12,9 C 0,0 km/h (0 Bft)
12.05.2011 21:50 15,4 C 19,1 C 13,4 C 14,6 C 12,9 C 0,0 C 81 % 93 % 0 % 1014,6 hPa 0,0 l/m 0,5 km/h (0 Bft) S 180 0 min 0,0 UV-I 12,2 C 12,9 C 0,0 km/h (0 Bft)
12.05.2011 21:55 15,5 C 19,1 C 13,3 C 14,6 C 12,9 C 0,0 C 82 % 93 % 0 % 1014,9 hPa 0,0 l/m 1,3 km/h (1 Bft) SW 225 0 min 0,0 UV-I 12,4 C 12,9 C 4,5 km/h (1 Bft)
12.05.2011 22:00 15,5 C 19,1 C 13,2 C 14,6 C 12,9 C 0,0 C 82 % 93 % 0 % 1014,9 hPa 0,0 l/m 2,3 km/h (1 Bft) S 180 0 min 0,0 UV-I 12,4 C 12,9 C 0,0 km/h (0 Bft)
12.05.2011 22:10 15,2 C 19,1 C 13,1 C 14,4 C 12,8 C 0,0 C 82 % 93 % 0 % 1014,9 hPa 0,0 l/m 0,5 km/h (0 Bft) N 0 0 min 0,0 UV-I 12,1 C 12,8 C 0,0 km/h (0 Bft)
12.05.2011 22:15 15,2 C 19,1 C 13,1 C 14,4 C 12,8 C 0,0 C 82 % 93 % 0 % 1015,0 hPa 0,0 l/m 0,3 km/h (0 Bft) S 180 0 min 0,0 UV-I 12,1 C 12,8 C 2,9 km/h (1 Bft)
12.05.2011 22:20 15,2 C 19,1 C 13,1 C 14,4 C 12,8 C 0,0 C 82 % 93 % 0 % 1015,0 hPa 0,0 l/m 0,3 km/h (0 Bft) W-SW 247 0 min 0,0 UV-I 12,1 C 12,8 C 0,0 km/h (0 Bft)
12.05.2011 22:25 15,1 C 19,1 C 13,1 C 14,3 C 12,8 C 0,0 C 82 % 93 % 0 % 1015,0 hPa 0,0 l/m 0,2 km/h (0 Bft) S-SW 202 0 min 0,0 UV-I 12,0 C 12,8 C 0,0 km/h (0 Bft)
12.05.2011 22:30 15,1 C 19,0 C 13,0 C 14,3 C 12,8 C 0,0 C 82 % 93 % 0 % 1015,0 hPa 0,0 l/m 0,0 km/h (0 Bft) SW 225 0 min 0,0 UV-I 12,0 C 12,8 C 0,0 km/h (0 Bft)
12.05.2011 22:35 15,1 C 19,0 C 13,1 C 14,3 C 12,8 C 0,0 C 83 % 93 % 0 % 1014,9 hPa 0,0 l/m 0,3 km/h (0 Bft) NO 45 0 min 0,0 UV-I 12,2 C 12,8 C 2,3 km/h (1 Bft)
12.05.2011 22:40 15,1 C 19,0 C 13,1 C 14,3 C 12,8 C 0,0 C 83 % 93 % 0 % 1014,9 hPa 0,0 l/m 0,3 km/h (0 Bft) SW 225 0 min 0,0 UV-I 12,2 C 12,8 C 0,0 km/h (0 Bft)
12.05.2011 22:45 15,1 C 19,0 C 13,1 C 14,3 C 12,8 C 0,0 C 83 % 94 % 0 % 1014,9 hPa 0,0 l/m 0,5 km/h (0 Bft) SW 225 0 min 0,0 UV-I 12,2 C 12,8 C 0,0 km/h (0 Bft)
12.05.2011 22:50 15,1 C 19,0 C 13,1 C 14,3 C 12,8 C 0,0 C 83 % 94 % 0 % 1014,9 hPa 0,0 l/m 0,5 km/h (0 Bft) SW 225 0 min 0,0 UV-I 12,2 C 12,8 C 0,0 km/h (0 Bft)
12.05.2011 22:55 15,1 C 19,0 C 13,1 C 14,3 C 12,7 C 0,0 C 83 % 94 % 0 % 1015,1 hPa 0,0 l/m 0,2 km/h (0 Bft) S-SO 157 0 min 0,0 UV-I 12,2 C 12,7 C 0,0 km/h (0 Bft)
12.05.2011 23:00 15,0 C 19,0 C 13,1 C 14,2 C 12,7 C 0,0 C 83 % 94 % 0 % 1015,1 hPa 0,0 l/m 0,0 km/h (0 Bft) SO 135 0 min 0,0 UV-I 12,1 C 12,7 C 0,0 km/h (0 Bft)
12.05.2011 23:10 14,9 C 19,0 C 13,1 C 14,2 C 12,7 C 0,0 C 84 % 94 % 0 % 1015,1 hPa 0,0 l/m 0,2 km/h (0 Bft) N 0 0 min 0,0 UV-I 12,2 C 12,7 C 1,6 km/h (1 Bft)
12.05.2011 23:15 14,9 C 19,0 C 13,2 C 14,2 C 12,8 C 0,0 C 84 % 94 % 0 % 1015,6 hPa 0,0 l/m 0,3 km/h (0 Bft) S 180 0 min 0,0 UV-I 12,2 C 12,8 C 3,4 km/h (1 Bft)
12.05.2011 23:20 14,8 C 19,0 C 13,2 C 14,1 C 12,8 C 0,0 C 84 % 94 % 0 % 1015,6 hPa 0,0 l/m 0,3 km/h (0 Bft) W-SW 247 0 min 0,0 UV-I 12,1 C 12,8 C 0,0 km/h (0 Bft)
12.05.2011 23:25 14,9 C 18,9 C 13,1 C 14,2 C 12,7 C 0,0 C 84 % 94 % 0 % 1015,6 hPa 0,0 l/m 0,5 km/h (0 Bft) SW 225 0 min 0,0 UV-I 12,2 C 12,7 C 4,2 km/h (1 Bft)
12.05.2011 23:30 14,9 C 18,9 C 13,1 C 14,2 C 12,7 C 0,0 C 84 % 94 % 0 % 1015,6 hPa 0,0 l/m 0,5 km/h (0 Bft) W-SW 247 0 min 0,0 UV-I 12,2 C 12,7 C 0,0 km/h (0 Bft)
12.05.2011 23:35 14,9 C 18,9 C 13,1 C 14,1 C 12,6 C 0,0 C 84 % 94 % 0 % 1015,2 hPa 0,0 l/m 0,6 km/h (0 Bft) W-SW 247 0 min 0,0 UV-I 12,2 C 12,6 C 0,0 km/h (0 Bft)
12.05.2011 23:40 14,9 C 18,9 C 13,1 C 14,1 C 12,6 C 0,0 C 84 % 94 % 0 % 1015,2 hPa 0,0 l/m 0,3 km/h (0 Bft) W-SW 247 0 min 0,0 UV-I 12,2 C 12,6 C 1,6 km/h (1 Bft)
12.05.2011 23:45 14,9 C 18,9 C 13,1 C 14,1 C 12,6 C 0,0 C 84 % 94 % 0 % 1015,2 hPa 0,0 l/m 0,8 km/h (0 Bft) W-SW 247 0 min 0,0 UV-I 12,2 C 12,6 C 2,6 km/h (1 Bft)
12.05.2011 23:50 14,9 C 18,9 C 13,1 C 14,1 C 12,6 C 0,0 C 84 % 94 % 0 % 1015,2 hPa 0,0 l/m 0,8 km/h (0 Bft) S-SW 202 0 min 0,0 UV-I 12,2 C 12,6 C 0,0 km/h (0 Bft)
12.05.2011 23:55 14,8 C 18,9 C 13,1 C 14,1 C 12,6 C 0,0 C 84 % 94 % 0 % 1015,0 hPa 0,0 l/m 0,6 km/h (0 Bft) W 270 0 min 0,0 UV-I 12,1 C 12,6 C 1,8 km/h (1 Bft)
_ Min-Zeit 05:10 06:40 06:10 05:10 05:20 00:00 13:45 18:50 00:00 18:35 - 00:00 - - - 00:00 05:10 05:20 00:00
Minimum _ 12,3 C 18,5 C 10,9 C 11,4 C 9,5 C 0,0 C 48 % 58 % 0 % 1012,6 hPa - 0,0 km/h (0 Bft) - - - 0,0 UV-I 9,5 C 9,5 C 0,0 km/h (0 Bft)
_ Max-Zeit 13:40 00:00 18:30 12:25 12:25 12:20 03:40 22:45 09:10 00:35 20:15 20:20 - - 09:10 12:25 11:15 12:25 20:15
Maximum _ 23,1 C 19,7 C 21,0 C 29,6 C 29,6 C 6,9 C 84 % 94 % 100 % 1018,6 hPa 2,1 l/m 10,8 km/h
SW (2 Bft)
- - 10 min 3,3 UV-I 14,6 C 29,6 C 25,7 km/h
S-SO (4 Bft)
Durchschnitt _ 17,4 C 18,8 C 13,0 C 18,3 C 17,4 C 1,4 C 72 % 86 % 30 % 1015,4 hPa #7,6 l/m 1,2 km/h (1 Bft) S - #5:15 h 1,0 UV-I 12,1 C 17,4 C 1,7 km/h (1 Bft)
2013 www.wetterstation-wechselburg.de